createdAt,value
2018-12-03T00:00:31.004Z,714.74
2018-12-03T00:01:31.476Z,714.15
2018-12-03T00:02:31.946Z,714.83
2018-12-03T00:03:32.417Z,714.38
2018-12-03T00:04:32.887Z,715.09
2018-12-03T00:05:33.359Z,714.99
2018-12-03T00:06:33.830Z,715.04
2018-12-03T00:07:34.300Z,715.23
2018-12-03T00:08:34.770Z,714.60
2018-12-03T00:09:35.242Z,714.65
2018-12-03T00:10:35.764Z,714.91
2018-12-03T00:11:36.189Z,714.63
2018-12-03T00:12:36.653Z,715.08
2018-12-03T00:13:37.126Z,714.78
2018-12-03T00:14:37.597Z,714.83
2018-12-03T00:15:38.068Z,714.92
2018-12-03T00:16:38.537Z,714.92
2018-12-03T00:17:39.009Z,714.88
2018-12-03T00:18:39.480Z,714.81
2018-12-03T00:19:39.952Z,715.12
2018-12-03T00:20:40.422Z,714.97
2018-12-03T00:21:40.894Z,714.69
2018-12-03T00:22:41.362Z,714.56
2018-12-03T00:23:41.835Z,714.34
2018-12-03T00:24:42.304Z,714.75
2018-12-03T00:25:42.789Z,714.55
2018-12-03T00:26:43.246Z,714.46
2018-12-03T00:27:43.716Z,714.69
2018-12-03T00:28:44.189Z,715.01
2018-12-03T00:29:44.657Z,714.65
2018-12-03T00:30:45.180Z,714.89
2018-12-03T00:31:45.602Z,714.74
2018-12-03T00:32:46.069Z,714.76
2018-12-03T00:33:46.541Z,714.59
2018-12-03T00:34:47.013Z,715.06
2018-12-03T00:35:47.486Z,714.90
2018-12-03T00:36:47.953Z,715.09
2018-12-03T00:37:48.502Z,715.03
2018-12-03T00:38:48.965Z,714.68
2018-12-03T00:39:49.393Z,714.97
2018-12-03T00:40:49.836Z,714.86
2018-12-03T00:41:50.306Z,715.28
2018-12-03T00:42:50.779Z,715.12
2018-12-03T00:43:51.252Z,715.21
2018-12-03T00:44:51.721Z,715.06
2018-12-03T00:45:52.190Z,714.79
2018-12-03T00:46:52.663Z,715.09
2018-12-03T00:47:53.131Z,714.94
2018-12-03T00:48:53.602Z,714.96
2018-12-03T00:49:54.072Z,715.00
2018-12-03T00:50:54.542Z,714.77
2018-12-03T00:51:55.015Z,714.80
2018-12-03T00:52:55.486Z,714.93
2018-12-03T00:53:55.954Z,714.88
2018-12-03T00:54:56.426Z,715.05
2018-12-03T00:55:56.898Z,714.77
2018-12-03T00:56:57.370Z,715.27
2018-12-03T00:57:57.837Z,715.18
2018-12-03T00:58:58.310Z,714.94
2018-12-03T00:59:58.779Z,714.43
2018-12-03T01:00:59.250Z,714.80
2018-12-03T01:01:59.723Z,714.89
2018-12-03T01:03:00.192Z,715.04
2018-12-03T01:04:00.663Z,714.80
2018-12-03T01:05:01.133Z,715.05
2018-12-03T01:06:01.604Z,715.01
2018-12-03T01:07:02.075Z,715.17
2018-12-03T01:08:02.545Z,715.16
2018-12-03T01:09:03.016Z,714.98
2018-12-03T01:10:03.487Z,714.79
2018-12-03T01:11:03.958Z,715.26
2018-12-03T01:12:04.429Z,715.15
2018-12-03T01:13:04.896Z,714.87
2018-12-03T01:14:06.409Z,715.35
2018-12-03T01:15:05.839Z,715.06
2018-12-03T01:16:06.309Z,715.26
2018-12-03T01:17:06.778Z,715.09
2018-12-03T01:18:07.250Z,715.09
2018-12-03T01:19:07.722Z,714.98
2018-12-03T01:20:08.193Z,715.26
2018-12-03T01:21:08.661Z,715.14
2018-12-03T01:22:09.133Z,714.78
2018-12-03T01:23:09.603Z,715.11
2018-12-03T01:24:10.075Z,714.38
2018-12-03T01:25:10.544Z,714.96
2018-12-03T01:26:11.014Z,714.99
2018-12-03T01:27:11.486Z,715.43
2018-12-03T01:28:11.955Z,714.71
2018-12-03T01:29:12.427Z,715.19
2018-12-03T01:30:12.897Z,714.90
2018-12-03T01:31:13.367Z,714.48
2018-12-03T01:32:13.837Z,714.94
2018-12-03T01:33:14.306Z,714.95
2018-12-03T01:34:14.782Z,714.78
2018-12-03T01:35:15.248Z,714.82
2018-12-03T01:36:15.771Z,715.06
2018-12-03T01:37:16.189Z,715.08
2018-12-03T01:38:16.660Z,714.72
2018-12-03T01:39:17.129Z,714.95
2018-12-03T01:40:17.601Z,715.23
2018-12-03T01:41:18.069Z,714.84
2018-12-03T01:42:18.546Z,715.10
2018-12-03T01:43:19.013Z,715.13
2018-12-03T01:44:19.482Z,715.00
2018-12-03T01:45:19.952Z,715.12
2018-12-03T01:46:20.423Z,714.75
2018-12-03T01:47:20.894Z,714.59
2018-12-03T01:48:21.365Z,714.78
2018-12-03T01:49:21.834Z,715.17
2018-12-03T01:50:22.303Z,715.00
2018-12-03T01:51:22.774Z,714.98
2018-12-03T01:52:23.245Z,714.54
2018-12-03T01:53:23.714Z,715.16
2018-12-03T01:54:24.186Z,715.01
2018-12-03T01:55:24.657Z,714.95
2018-12-03T01:56:25.126Z,714.65
2018-12-03T01:57:25.599Z,714.82
2018-12-03T01:58:26.067Z,714.52
2018-12-03T01:59:26.541Z,714.72
2018-12-03T02:00:27.010Z,714.44
2018-12-03T02:01:27.480Z,714.58
2018-12-03T02:02:27.994Z,714.85
2018-12-03T02:03:28.423Z,714.84
2018-12-03T02:04:28.889Z,714.74
2018-12-03T02:05:29.359Z,714.53
2018-12-03T02:06:29.829Z,714.56
2018-12-03T02:07:30.299Z,714.45
2018-12-03T02:08:30.771Z,714.51
2018-12-03T02:09:31.239Z,713.95
2018-12-03T02:10:31.711Z,714.03
2018-12-03T02:11:32.181Z,714.00
2018-12-03T02:12:32.654Z,714.37
2018-12-03T02:13:33.121Z,714.21
2018-12-03T02:14:33.595Z,714.59
2018-12-03T02:15:34.063Z,714.16
2018-12-03T02:16:34.537Z,714.70
2018-12-03T02:17:35.006Z,714.57
2018-12-03T02:18:35.472Z,714.60
2018-12-03T02:19:35.944Z,714.82
2018-12-03T02:20:36.413Z,714.57
2018-12-03T02:21:36.882Z,714.28
2018-12-03T02:22:37.354Z,713.99
2018-12-03T02:23:37.827Z,714.51
2018-12-03T02:24:38.295Z,714.46
2018-12-03T02:25:38.763Z,714.41
2018-12-03T02:26:39.234Z,714.11
2018-12-03T02:27:39.704Z,713.75
2018-12-03T02:28:40.177Z,714.62
2018-12-03T02:29:40.645Z,714.78
2018-12-03T02:30:41.119Z,714.02
2018-12-03T02:31:41.593Z,714.43
2018-12-03T02:32:42.056Z,714.67
2018-12-03T02:33:42.529Z,714.33
2018-12-03T02:34:42.999Z,714.78
2018-12-03T02:35:43.468Z,714.37
2018-12-03T02:36:43.941Z,714.53
2018-12-03T02:37:44.408Z,714.26
2018-12-03T02:38:44.878Z,714.49
2018-12-03T02:39:45.349Z,714.95
2018-12-03T02:40:45.818Z,714.84
2018-12-03T02:41:46.288Z,714.96
2018-12-03T02:42:46.764Z,714.99
2018-12-03T02:43:47.228Z,714.82
2018-12-03T02:44:47.700Z,714.96
2018-12-03T02:45:48.220Z,714.77
2018-12-03T02:46:48.757Z,715.02
2018-12-03T02:47:49.108Z,714.66
2018-12-03T02:48:49.579Z,714.83
2018-12-03T02:49:50.103Z,714.69
2018-12-03T02:50:50.573Z,714.91
2018-12-03T02:51:50.990Z,714.80
2018-12-03T02:52:51.461Z,714.75
2018-12-03T02:53:51.930Z,714.58
2018-12-03T02:54:52.404Z,714.54
2018-12-03T02:55:52.872Z,714.98
2018-12-03T02:56:53.342Z,714.92
2018-12-03T02:57:53.812Z,714.73
2018-12-03T02:58:54.282Z,714.61
2018-12-03T02:59:54.751Z,714.80
2018-12-03T03:00:55.231Z,714.98
2018-12-03T03:01:55.691Z,714.94
2018-12-03T03:02:56.162Z,714.86
2018-12-03T03:03:56.634Z,714.91
2018-12-03T03:04:57.101Z,714.83
2018-12-03T03:05:57.570Z,714.92
2018-12-03T03:06:58.043Z,714.91
2018-12-03T03:07:58.513Z,714.72
2018-12-03T03:08:58.983Z,714.88
2018-12-03T03:09:59.452Z,714.75
2018-12-03T03:10:59.922Z,714.61
2018-12-03T03:12:00.393Z,714.74
2018-12-03T03:13:00.862Z,714.80
2018-12-03T03:14:01.332Z,714.80
2018-12-03T03:15:01.803Z,714.75
2018-12-03T03:16:02.271Z,714.43
2018-12-03T03:17:02.743Z,714.66
2018-12-03T03:18:03.215Z,714.92
2018-12-03T03:19:03.681Z,714.90
2018-12-03T03:20:04.152Z,714.76
2018-12-03T03:21:04.627Z,714.69
2018-12-03T03:22:05.094Z,714.70
2018-12-03T03:23:05.567Z,715.38
2018-12-03T03:24:06.033Z,715.13
2018-12-03T03:25:06.501Z,715.08
2018-12-03T03:26:06.972Z,715.24
2018-12-03T03:27:07.444Z,714.62
2018-12-03T03:28:07.918Z,715.20
2018-12-03T03:29:08.384Z,715.14
2018-12-03T03:30:08.854Z,715.11
2018-12-03T03:31:09.322Z,715.21
2018-12-03T03:32:09.795Z,715.19
2018-12-03T03:33:10.279Z,715.07
2018-12-03T03:34:10.732Z,714.71
2018-12-03T03:35:11.203Z,714.66
2018-12-03T03:36:11.674Z,715.02
2018-12-03T03:37:12.145Z,715.13
2018-12-03T03:38:12.611Z,714.99
2018-12-03T03:39:13.082Z,715.01
2018-12-03T03:40:13.555Z,715.15
2018-12-03T03:41:14.023Z,714.97
2018-12-03T03:42:14.494Z,715.11
2018-12-03T03:43:14.964Z,715.12
2018-12-03T03:44:15.434Z,715.20
2018-12-03T03:45:15.904Z,715.17
2018-12-03T03:46:16.379Z,715.15
2018-12-03T03:47:16.844Z,715.26
2018-12-03T03:48:17.317Z,715.15
2018-12-03T03:49:17.783Z,715.29
2018-12-03T03:50:18.256Z,715.40
2018-12-03T03:51:18.725Z,714.95
2018-12-03T03:52:19.196Z,715.29
2018-12-03T03:53:19.665Z,715.21
2018-12-03T03:54:25.301Z,715.18
2018-12-03T03:55:20.606Z,715.38
2018-12-03T03:56:21.076Z,715.29
2018-12-03T03:57:21.546Z,715.23
2018-12-03T03:58:22.019Z,715.19
2018-12-03T03:59:22.488Z,715.15
2018-12-03T04:00:22.955Z,715.26
2018-12-03T04:01:23.427Z,714.86
2018-12-03T04:02:23.895Z,715.07
2018-12-03T04:03:24.370Z,715.06
2018-12-03T04:04:24.836Z,715.12
2018-12-03T04:05:25.308Z,715.20
2018-12-03T04:06:25.778Z,715.23
2018-12-03T04:07:26.249Z,715.29
2018-12-03T04:08:26.718Z,715.25
2018-12-03T04:09:27.189Z,715.15
2018-12-03T04:10:27.660Z,715.20
2018-12-03T04:11:28.129Z,715.24
2018-12-03T04:12:28.604Z,715.09
2018-12-03T04:13:29.069Z,715.00
2018-12-03T04:14:29.538Z,715.17
2018-12-03T04:15:30.011Z,715.36
2018-12-03T04:16:30.480Z,715.24
2018-12-03T04:17:30.957Z,715.35
2018-12-03T04:18:31.431Z,714.99
2018-12-03T04:19:31.891Z,715.47
2018-12-03T04:20:32.359Z,715.42
2018-12-03T04:21:32.833Z,715.05
2018-12-03T04:22:33.300Z,715.28
2018-12-03T04:23:33.773Z,715.22
2018-12-03T04:24:34.242Z,715.13
2018-12-03T04:25:34.712Z,715.25
2018-12-03T04:26:35.181Z,715.21
2018-12-03T04:27:35.652Z,715.18
2018-12-03T04:28:36.122Z,715.22
2018-12-03T04:29:36.593Z,715.33
2018-12-03T04:30:37.063Z,715.22
2018-12-03T04:31:37.535Z,715.14
2018-12-03T04:32:38.005Z,715.49
2018-12-03T04:33:38.483Z,715.27
2018-12-03T04:34:38.944Z,715.47
2018-12-03T04:35:39.414Z,714.97
2018-12-03T04:36:39.887Z,714.95
2018-12-03T04:37:40.356Z,715.41
2018-12-03T04:38:40.823Z,715.35
2018-12-03T04:39:41.301Z,715.34
2018-12-03T04:40:41.764Z,715.26
2018-12-03T04:41:42.236Z,715.21
2018-12-03T04:42:42.711Z,715.29
2018-12-03T04:43:43.176Z,715.45
2018-12-03T04:44:43.646Z,715.65
2018-12-03T04:45:44.116Z,715.33
2018-12-03T04:46:44.585Z,715.01
2018-12-03T04:47:45.059Z,715.11
2018-12-03T04:48:45.529Z,715.24
2018-12-03T04:49:46.000Z,715.18
2018-12-03T04:50:46.511Z,715.25
2018-12-03T04:51:46.937Z,715.33
2018-12-03T04:52:47.458Z,715.44
2018-12-03T04:53:47.880Z,715.29
2018-12-03T04:54:48.346Z,715.09
2018-12-03T04:55:48.818Z,715.11
2018-12-03T04:56:49.287Z,715.24
2018-12-03T04:57:49.763Z,715.06
2018-12-03T04:58:50.369Z,715.02
2018-12-03T04:59:50.699Z,714.98
2018-12-03T05:00:51.170Z,714.85
2018-12-03T05:01:51.644Z,715.08
2018-12-03T05:02:52.111Z,714.59
2018-12-03T05:03:52.581Z,714.45
2018-12-03T05:04:53.052Z,714.99
2018-12-03T05:05:53.522Z,715.23
2018-12-03T05:06:53.992Z,715.20
2018-12-03T05:07:54.460Z,715.18
2018-12-03T05:08:54.930Z,715.38
2018-12-03T05:09:55.401Z,715.06
2018-12-03T05:10:55.871Z,715.26
2018-12-03T05:11:56.343Z,715.32
2018-12-03T05:12:56.814Z,715.18
2018-12-03T05:13:57.283Z,715.32
2018-12-03T05:14:57.751Z,715.23
2018-12-03T05:15:58.223Z,715.31
2018-12-03T05:16:58.694Z,715.26
2018-12-03T05:17:59.170Z,715.38
2018-12-03T05:18:59.635Z,715.03
2018-12-03T05:20:00.104Z,715.19
2018-12-03T05:21:00.576Z,715.28
2018-12-03T05:22:01.045Z,715.20
2018-12-03T05:23:01.515Z,715.23
2018-12-03T05:24:04.368Z,715.26
2018-12-03T05:25:02.457Z,715.41
2018-12-03T05:26:02.928Z,714.95
2018-12-03T05:27:03.395Z,715.41
2018-12-03T05:28:03.866Z,715.13
2018-12-03T05:29:04.338Z,715.23
2018-12-03T05:30:04.807Z,715.22
2018-12-03T05:31:05.279Z,715.33
2018-12-03T05:32:05.746Z,715.39
2018-12-03T05:33:06.218Z,715.22
2018-12-03T05:34:06.690Z,715.05
2018-12-03T05:35:07.160Z,714.98
2018-12-03T05:36:07.691Z,714.95
2018-12-03T05:37:08.099Z,715.32
2018-12-03T05:38:08.569Z,715.16
2018-12-03T05:39:09.041Z,714.93
2018-12-03T05:40:09.512Z,714.90
2018-12-03T05:41:09.981Z,715.22
2018-12-03T05:42:10.454Z,715.15
2018-12-03T05:43:10.921Z,715.18
2018-12-03T05:44:11.395Z,715.27
2018-12-03T05:45:11.864Z,715.10
2018-12-03T05:46:12.334Z,715.17
2018-12-03T05:47:12.803Z,715.42
2018-12-03T05:48:13.275Z,715.34
2018-12-03T05:49:13.744Z,715.23
2018-12-03T05:50:14.225Z,714.99
2018-12-03T05:51:14.684Z,715.29
2018-12-03T05:52:15.157Z,715.23
2018-12-03T05:53:15.629Z,715.22
2018-12-03T05:54:16.098Z,715.33
2018-12-03T05:55:16.566Z,715.17
2018-12-03T05:56:17.036Z,714.74
2018-12-03T05:57:17.507Z,715.46
2018-12-03T05:58:17.979Z,715.66
2018-12-03T05:59:18.450Z,715.36
2018-12-03T06:00:18.918Z,715.47
2018-12-03T06:01:19.388Z,715.27
2018-12-03T06:02:19.862Z,715.39
2018-12-03T06:03:20.328Z,715.18
2018-12-03T06:04:20.800Z,715.24
2018-12-03T06:05:21.271Z,715.37
2018-12-03T06:06:21.743Z,715.30
2018-12-03T06:07:22.213Z,715.61
2018-12-03T06:08:22.685Z,715.37
2018-12-03T06:09:23.154Z,715.45
2018-12-03T06:10:23.623Z,715.20
2018-12-03T06:11:24.091Z,715.50
2018-12-03T06:12:24.563Z,715.56
2018-12-03T06:13:25.034Z,715.50
2018-12-03T06:14:25.503Z,715.55
2018-12-03T06:15:25.974Z,715.42
2018-12-03T06:16:26.443Z,715.66
2018-12-03T06:17:26.914Z,715.52
2018-12-03T06:18:27.385Z,715.28
2018-12-03T06:19:27.854Z,715.28
2018-12-03T06:20:28.325Z,715.23
2018-12-03T06:21:28.797Z,715.50
2018-12-03T06:22:29.265Z,715.31
2018-12-03T06:23:29.741Z,715.46
2018-12-03T06:24:30.206Z,715.58
2018-12-03T06:25:30.678Z,715.56
2018-12-03T06:26:31.148Z,715.45
2018-12-03T06:27:31.617Z,715.55
2018-12-03T06:28:32.088Z,715.58
2018-12-03T06:29:32.557Z,715.60
2018-12-03T06:30:33.027Z,715.33
2018-12-03T06:31:33.497Z,715.63
2018-12-03T06:32:33.969Z,715.31
2018-12-03T06:33:34.437Z,715.67
2018-12-03T06:34:34.909Z,715.41
2018-12-03T06:35:35.378Z,715.63
2018-12-03T06:36:35.849Z,715.32
2018-12-03T06:37:36.322Z,715.37
2018-12-03T06:38:36.793Z,715.39
2018-12-03T06:39:37.259Z,715.50
2018-12-03T06:40:37.729Z,715.37
2018-12-03T06:41:38.206Z,715.34
2018-12-03T06:42:38.673Z,715.51
2018-12-03T06:43:39.140Z,715.23
2018-12-03T06:44:39.610Z,715.64
2018-12-03T06:45:40.081Z,715.53
2018-12-03T06:46:40.552Z,715.41
2018-12-03T06:47:41.024Z,715.49
2018-12-03T06:48:41.494Z,715.34
2018-12-03T06:49:41.963Z,715.56
2018-12-03T06:50:42.432Z,715.52
2018-12-03T06:51:42.904Z,715.68
2018-12-03T06:52:43.372Z,715.41
2018-12-03T06:53:43.842Z,715.49
2018-12-03T06:54:44.314Z,715.55
2018-12-03T06:55:44.786Z,715.75
2018-12-03T06:56:45.256Z,715.50
2018-12-03T06:57:45.726Z,715.30
2018-12-03T06:58:46.195Z,715.69
2018-12-03T06:59:46.664Z,715.51
2018-12-03T07:00:47.133Z,715.54
2018-12-03T07:01:47.606Z,715.46
2018-12-03T07:02:48.075Z,715.65
2018-12-03T07:03:48.544Z,715.36
2018-12-03T07:04:49.014Z,715.53
2018-12-03T07:05:49.485Z,715.47
2018-12-03T07:06:49.955Z,715.28
2018-12-03T07:07:50.431Z,715.47
2018-12-03T07:08:50.899Z,715.73
2018-12-03T07:09:51.365Z,715.66
2018-12-03T07:10:51.836Z,715.35
2018-12-03T07:11:52.304Z,715.56
2018-12-03T07:12:52.777Z,715.42
2018-12-03T07:13:53.249Z,715.54
2018-12-03T07:14:53.718Z,715.54
2018-12-03T07:15:54.186Z,715.41
2018-12-03T07:16:54.660Z,715.57
2018-12-03T07:17:55.127Z,715.59
2018-12-03T07:18:55.596Z,715.41
2018-12-03T07:19:56.065Z,715.65
2018-12-03T07:20:56.539Z,715.69
2018-12-03T07:21:57.006Z,715.61
2018-12-03T07:22:57.480Z,715.72
2018-12-03T07:23:58.000Z,715.67
2018-12-03T07:24:58.419Z,715.68
2018-12-03T07:25:58.886Z,715.83
2018-12-03T07:26:59.361Z,714.99
2018-12-03T07:27:59.828Z,715.92
2018-12-03T07:29:00.301Z,715.74
2018-12-03T07:30:00.768Z,715.78
2018-12-03T07:31:01.238Z,715.75
2018-12-03T07:32:01.710Z,715.83
2018-12-03T07:33:02.179Z,715.93
2018-12-03T07:34:03.429Z,715.68
2018-12-03T07:35:03.119Z,715.12
2018-12-03T07:36:03.589Z,715.82
2018-12-03T07:37:04.058Z,715.31
2018-12-03T07:38:04.528Z,715.75
2018-12-03T07:39:05.002Z,715.75
2018-12-03T07:40:05.469Z,715.71
2018-12-03T07:41:05.940Z,715.83
2018-12-03T07:42:06.410Z,715.76
2018-12-03T07:43:06.886Z,715.53
2018-12-03T07:44:07.350Z,715.82
2018-12-03T07:45:07.821Z,715.51
2018-12-03T07:46:08.290Z,715.82
2018-12-03T07:47:08.761Z,715.44
2018-12-03T07:48:09.235Z,715.51
2018-12-03T07:49:09.752Z,715.78
2018-12-03T07:50:10.170Z,715.63
2018-12-03T07:51:10.641Z,715.97
2018-12-03T07:52:11.110Z,715.75
2018-12-03T07:53:11.581Z,715.66
2018-12-03T07:54:13.137Z,715.89
2018-12-03T07:55:12.521Z,716.05
2018-12-03T07:56:12.990Z,716.02
2018-12-03T07:57:13.463Z,715.66
2018-12-03T07:58:13.936Z,715.88
2018-12-03T07:59:14.401Z,715.65
2018-12-03T08:00:14.875Z,715.56
2018-12-03T08:01:15.344Z,715.60
2018-12-03T08:02:15.811Z,715.57
2018-12-03T08:03:16.287Z,715.48
2018-12-03T08:04:16.752Z,715.70
2018-12-03T08:05:17.224Z,715.73
2018-12-03T08:06:17.694Z,715.79
2018-12-03T08:07:18.163Z,715.07
2018-12-03T08:08:18.634Z,715.48
2018-12-03T08:09:19.102Z,715.56
2018-12-03T08:10:19.574Z,715.86
2018-12-03T08:11:20.044Z,716.00
2018-12-03T08:12:20.511Z,715.72
2018-12-03T08:13:20.983Z,715.71
2018-12-03T08:14:21.453Z,715.76
2018-12-03T08:15:21.925Z,715.69
2018-12-03T08:16:22.392Z,715.87
2018-12-03T08:17:22.864Z,715.06
2018-12-03T08:18:23.332Z,716.22
2018-12-03T08:19:23.803Z,715.64
2018-12-03T08:20:24.276Z,715.53
2018-12-03T08:21:24.743Z,715.41
2018-12-03T08:22:25.213Z,715.95
2018-12-03T08:23:25.685Z,715.83
2018-12-03T08:24:26.162Z,715.53
2018-12-03T08:25:26.625Z,715.66
2018-12-03T08:26:27.093Z,715.57
2018-12-03T08:27:27.564Z,715.61
2018-12-03T08:28:28.087Z,715.96
2018-12-03T08:29:28.504Z,715.85
2018-12-03T08:30:28.975Z,715.86
2018-12-03T08:31:29.443Z,715.67
2018-12-03T08:32:29.915Z,715.89
2018-12-03T08:33:30.384Z,715.72
2018-12-03T08:34:30.855Z,715.67
2018-12-03T08:35:31.325Z,715.72
2018-12-03T08:36:31.796Z,715.49
2018-12-03T08:37:32.267Z,715.97
2018-12-03T08:38:32.736Z,715.81
2018-12-03T08:39:33.257Z,716.07
2018-12-03T08:40:33.675Z,715.84
2018-12-03T08:41:34.146Z,715.71
2018-12-03T08:42:34.617Z,716.08
2018-12-03T08:43:35.085Z,715.54
2018-12-03T08:44:35.558Z,715.49
2018-12-03T08:45:36.027Z,715.81
2018-12-03T08:46:36.497Z,715.05
2018-12-03T08:47:36.965Z,715.68
2018-12-03T08:48:37.436Z,715.51
2018-12-03T08:49:37.907Z,715.68
2018-12-03T08:50:38.378Z,715.72
2018-12-03T08:51:38.848Z,716.04
2018-12-03T08:52:39.318Z,715.64
2018-12-03T08:53:39.788Z,715.87
2018-12-03T08:54:40.259Z,715.95
2018-12-03T08:55:40.729Z,715.52
2018-12-03T08:56:41.197Z,715.90
2018-12-03T08:57:41.669Z,715.76
2018-12-03T08:58:42.139Z,715.98
2018-12-03T08:59:42.609Z,715.53
2018-12-03T09:00:43.080Z,715.92
2018-12-03T09:01:43.550Z,715.71
2018-12-03T09:02:44.020Z,715.54
2018-12-03T09:03:44.489Z,715.42
2018-12-03T09:04:44.959Z,715.71
2018-12-03T09:05:45.430Z,715.42
2018-12-03T09:06:45.900Z,716.22
2018-12-03T09:07:46.372Z,716.05
2018-12-03T09:08:46.839Z,715.80
2018-12-03T09:09:47.313Z,715.76
2018-12-03T09:10:47.785Z,715.79
2018-12-03T09:11:48.252Z,715.71
2018-12-03T09:12:48.727Z,715.65
2018-12-03T09:13:49.196Z,715.91
2018-12-03T09:14:49.664Z,715.58
2018-12-03T09:15:50.133Z,715.69
2018-12-03T09:16:50.604Z,715.86
2018-12-03T09:17:51.072Z,715.57
2018-12-03T09:18:51.543Z,715.79
2018-12-03T09:19:52.015Z,716.01
2018-12-03T09:20:52.483Z,715.85
2018-12-03T09:21:52.954Z,715.72
2018-12-03T09:22:53.426Z,715.74
2018-12-03T09:23:53.896Z,715.75
2018-12-03T09:24:54.365Z,715.87
2018-12-03T09:25:54.834Z,716.15
2018-12-03T09:26:55.322Z,715.72
2018-12-03T09:27:55.778Z,715.79
2018-12-03T09:28:56.246Z,715.96
2018-12-03T09:29:56.720Z,715.64
2018-12-03T09:30:57.920Z,715.70
2018-12-03T09:31:57.658Z,715.75
2018-12-03T09:32:58.128Z,715.77
2018-12-03T09:33:58.598Z,716.01
2018-12-03T09:34:59.070Z,715.50
2018-12-03T09:35:59.539Z,715.42
2018-12-03T09:37:00.009Z,716.01
2018-12-03T09:38:00.480Z,715.85
2018-12-03T09:39:00.949Z,715.75
2018-12-03T09:40:01.422Z,715.81
2018-12-03T09:41:01.890Z,715.92
2018-12-03T09:42:02.362Z,715.79
2018-12-03T09:43:02.835Z,715.54
2018-12-03T09:44:03.303Z,715.60
2018-12-03T09:45:03.774Z,715.53
2018-12-03T09:46:04.242Z,715.85
2018-12-03T09:47:04.714Z,715.92
2018-12-03T09:48:05.185Z,715.72
2018-12-03T09:49:05.654Z,715.86
2018-12-03T09:50:06.123Z,715.89
2018-12-03T09:51:06.595Z,715.93
2018-12-03T09:52:07.064Z,715.97
2018-12-03T09:53:07.539Z,716.01
2018-12-03T09:54:08.008Z,715.84
2018-12-03T09:55:08.477Z,715.61
2018-12-03T09:56:08.948Z,715.40
2018-12-03T09:57:09.418Z,715.71
2018-12-03T09:58:10.338Z,715.92
2018-12-03T09:59:10.358Z,715.65
2018-12-03T10:00:10.832Z,715.81
2018-12-03T10:01:11.303Z,715.75
2018-12-03T10:02:11.770Z,715.48
2018-12-03T10:03:12.241Z,715.18
2018-12-03T10:04:12.713Z,715.70
2018-12-03T10:05:13.182Z,715.77
2018-12-03T10:06:13.653Z,715.26
2018-12-03T10:07:14.123Z,715.52
2018-12-03T10:08:14.595Z,715.71
2018-12-03T10:09:15.065Z,715.86
2018-12-03T10:10:15.538Z,715.60
2018-12-03T10:11:16.006Z,715.71
2018-12-03T10:12:18.281Z,715.16
2018-12-03T10:13:16.950Z,715.52
2018-12-03T10:14:17.417Z,715.55
2018-12-03T10:15:17.887Z,715.60
2018-12-03T10:16:18.359Z,715.21
2018-12-03T10:17:18.829Z,715.57
2018-12-03T10:18:19.299Z,715.39
2018-12-03T10:19:19.770Z,715.47
2018-12-03T10:20:20.243Z,715.41
2018-12-03T10:21:20.713Z,715.49
2018-12-03T10:22:21.184Z,715.03
2018-12-03T10:23:21.652Z,715.63
2018-12-03T10:24:22.125Z,715.36
2018-12-03T10:25:22.596Z,715.23
2018-12-03T10:26:23.065Z,715.60
2018-12-03T10:27:23.535Z,715.35
2018-12-03T10:28:24.008Z,715.07
2018-12-03T10:29:24.477Z,715.15
2018-12-03T10:30:24.950Z,715.43
2018-12-03T10:31:25.419Z,714.92
2018-12-03T10:32:25.889Z,714.85
2018-12-03T10:33:26.361Z,715.22
2018-12-03T10:34:26.832Z,714.99
2018-12-03T10:35:27.301Z,715.47
2018-12-03T10:36:27.771Z,715.61
2018-12-03T10:37:28.242Z,715.52
2018-12-03T10:38:28.714Z,715.40
2018-12-03T10:39:29.185Z,715.45
2018-12-03T10:40:29.654Z,715.51
2018-12-03T10:41:30.124Z,715.42
2018-12-03T10:42:30.594Z,715.46
2018-12-03T10:43:31.068Z,715.40
2018-12-03T10:44:31.536Z,715.61
2018-12-03T10:45:32.007Z,715.34
2018-12-03T10:46:32.478Z,715.33
2018-12-03T10:47:32.947Z,715.31
2018-12-03T10:48:33.423Z,715.44
2018-12-03T10:49:33.890Z,715.52
2018-12-03T10:50:34.360Z,715.58
2018-12-03T10:51:34.831Z,715.26
2018-12-03T10:52:35.301Z,715.26
2018-12-03T10:53:35.773Z,714.93
2018-12-03T10:54:36.241Z,715.35
2018-12-03T10:55:36.712Z,715.13
2018-12-03T10:56:37.184Z,715.52
2018-12-03T10:57:37.655Z,715.44
2018-12-03T10:58:38.126Z,715.45
2018-12-03T10:59:38.598Z,715.50
2018-12-03T11:00:39.067Z,715.51
2018-12-03T11:01:39.536Z,715.28
2018-12-03T11:02:40.009Z,715.57
2018-12-03T11:03:40.477Z,714.93
2018-12-03T11:04:40.949Z,714.81
2018-12-03T11:05:41.418Z,715.15
2018-12-03T11:06:41.892Z,715.40
2018-12-03T11:07:42.360Z,715.22
2018-12-03T11:08:42.833Z,714.80
2018-12-03T11:09:43.303Z,714.92
2018-12-03T11:10:43.822Z,715.40
2018-12-03T11:11:44.252Z,715.40
2018-12-03T11:12:44.714Z,714.93
2018-12-03T11:13:45.189Z,715.25
2018-12-03T11:14:45.660Z,715.22
2018-12-03T11:15:46.126Z,715.17
2018-12-03T11:16:46.597Z,715.35
2018-12-03T11:17:47.067Z,715.29
2018-12-03T11:18:47.537Z,715.11
2018-12-03T11:19:48.012Z,715.19
2018-12-03T11:20:48.480Z,715.17
2018-12-03T11:21:48.951Z,715.13
2018-12-03T11:22:49.426Z,715.23
2018-12-03T11:23:49.891Z,715.22
2018-12-03T11:24:50.363Z,715.45
2018-12-03T11:25:50.831Z,715.27
2018-12-03T11:26:51.305Z,715.05
2018-12-03T11:27:51.774Z,715.51
2018-12-03T11:28:52.246Z,715.33
2018-12-03T11:29:52.721Z,715.25
2018-12-03T11:30:53.187Z,715.43
2018-12-03T11:31:53.657Z,715.09
2018-12-03T11:32:54.127Z,715.35
2018-12-03T11:33:54.597Z,714.95
2018-12-03T11:34:55.070Z,715.15
2018-12-03T11:35:55.541Z,715.07
2018-12-03T11:36:56.011Z,714.62
2018-12-03T11:37:56.841Z,714.69
2018-12-03T11:38:56.950Z,714.81
2018-12-03T11:39:57.422Z,715.24
2018-12-03T11:40:57.892Z,715.23
2018-12-03T11:41:58.365Z,714.99
2018-12-03T11:42:58.833Z,715.15
2018-12-03T11:43:59.305Z,715.40
2018-12-03T11:44:59.777Z,715.10
2018-12-03T11:46:00.245Z,715.17
2018-12-03T11:47:00.748Z,715.12
2018-12-03T11:48:01.187Z,715.10
2018-12-03T11:49:01.659Z,715.10
2018-12-03T11:50:02.131Z,715.21
2018-12-03T11:51:02.599Z,715.34
2018-12-03T11:52:03.070Z,715.24
2018-12-03T11:53:03.542Z,714.98
2018-12-03T11:54:04.011Z,715.28
2018-12-03T11:55:04.485Z,715.10
2018-12-03T11:56:04.954Z,715.21
2018-12-03T11:57:05.426Z,715.23
2018-12-03T11:58:05.894Z,715.22
2018-12-03T11:59:06.367Z,715.02
2018-12-03T12:00:06.837Z,715.00
2018-12-03T12:01:07.307Z,715.20
2018-12-03T12:02:07.782Z,715.22
2018-12-03T12:03:08.250Z,715.20
2018-12-03T12:04:08.719Z,715.25
2018-12-03T12:05:09.193Z,715.20
2018-12-03T12:06:09.661Z,715.17
2018-12-03T12:07:10.132Z,714.98
2018-12-03T12:08:10.607Z,715.41
2018-12-03T12:09:11.074Z,714.99
2018-12-03T12:10:11.547Z,714.97
2018-12-03T12:11:12.016Z,715.09
2018-12-03T12:12:12.484Z,714.75
2018-12-03T12:13:12.956Z,715.10
2018-12-03T12:14:13.427Z,715.07
2018-12-03T12:15:13.897Z,714.95
2018-12-03T12:16:14.368Z,714.85
2018-12-03T12:17:14.839Z,714.91
2018-12-03T12:18:15.310Z,714.55
2018-12-03T12:19:15.786Z,714.98
2018-12-03T12:20:16.253Z,714.77
2018-12-03T12:21:16.723Z,714.70
2018-12-03T12:22:17.193Z,714.86
2018-12-03T12:23:17.665Z,714.97
2018-12-03T12:24:18.134Z,714.71
2018-12-03T12:25:18.606Z,714.88
2018-12-03T12:26:19.079Z,714.55
2018-12-03T12:27:19.547Z,714.96
2018-12-03T12:28:20.017Z,714.81
2018-12-03T12:29:20.488Z,714.89
2018-12-03T12:30:20.959Z,714.89
2018-12-03T12:31:21.435Z,714.80
2018-12-03T12:32:21.900Z,714.41
2018-12-03T12:33:22.374Z,714.78
2018-12-03T12:34:22.842Z,714.45